Time;durP1;ratioP1;P1;durP2;ratioP2;P2;SDS_P1;SDS_P2;PMS_P1;PMS_P2;Temp;Humidity;BMP_temperature;BMP_pressure;BME280_temperature;BME280_humidity;BME280_pressure;Samples;Min_cycle;Max_cycle;Signal;HPM_P1;HPM_P2
2022/11/17 00:01:09;;;;;;;108.70;42.63;;;;;;;6.24;78.21;99328.03;123112;1105;104322;-76
2022/11/17 00:03:40;;;;;;;98.50;41.50;;;;;;;6.24;78.19;99338.45;123070;1105;104369;-76
2022/11/17 00:06:11;;;;;;;100.47;45.23;;;;;;;6.25;78.39;99340.23;123091;1105;104479;-79
2022/11/17 00:08:42;;;;;;;108.47;44.63;;;;;;;6.22;78.52;99332.32;123058;1105;104239;-79
2022/11/17 00:11:14;;;;;;;110.63;46.93;;;;;;;6.20;78.35;99334.88;123041;1105;104344;-77
2022/11/17 00:16:52;;;;;;;106.97;46.60;;;;;;;6.15;78.31;99319.91;122901;1109;104653;-76
2022/11/17 00:22:12;;;;;;;108.57;49.07;;;;;;;6.15;78.39;99314.70;122985;1105;104437;-76
2022/11/17 00:24:43;;;;;;;108.25;45.10;;;;;;;6.17;78.54;99319.14;123014;1105;104261;-78
2022/11/17 00:27:16;;;;;;;102.77;45.50;;;;;;;6.19;78.56;99316.59;123096;1105;104287;-76
2022/11/17 00:29:48;;;;;;;97.70;42.83;;;;;;;6.22;78.83;99312.35;123019;1105;104241;-76
2022/11/17 00:35:09;;;;;;;94.30;38.87;;;;;;;6.31;78.75;99303.97;123128;1105;104211;-78
2022/11/17 00:38:14;;;;;;;93.30;37.97;;;;;;;6.33;78.82;99297.08;123066;1105;104379;-78
2022/11/17 00:40:34;;;;;;;90.37;37.57;;;;;;;6.36;78.88;99294.58;123172;1105;104316;-76
2022/11/17 00:43:05;;;;;;;87.05;34.95;;;;;;;6.38;78.85;99292.91;123098;1105;104402;-76
2022/11/17 00:45:36;;;;;;;84.40;34.93;;;;;;;6.41;79.09;99285.19;123093;1104;104316;-76
2022/11/17 00:48:08;;;;;;;86.47;35.77;;;;;;;6.42;78.91;99273.03;123093;1105;104332;-76
2022/11/17 00:50:39;;;;;;;90.60;36.03;;;;;;;6.43;78.84;99270.48;123064;1105;104704;-76
2022/11/17 00:53:10;;;;;;;87.23;35.83;;;;;;;6.42;79.23;99266.12;123144;1105;104349;-76
2022/11/17 00:55:42;;;;;;;88.03;33.47;;;;;;;6.41;78.89;99261.73;123106;1105;118852;-76
2022/11/17 00:58:13;;;;;;;85.33;35.70;;;;;;;6.41;79.18;99251.31;123141;1105;104342;-79
2022/11/17 01:00:44;;;;;;;92.83;35.90;;;;;;;6.41;79.00;99261.73;123218;1105;104223;-77
2022/11/17 01:03:16;;;;;;;84.77;35.00;;;;;;;6.42;79.26;99270.42;123193;1105;104354;-75
2022/11/17 01:05:47;;;;;;;86.10;35.13;;;;;;;6.43;79.14;99273.08;123120;1105;104294;-76
2022/11/17 01:08:18;;;;;;;80.03;34.07;;;;;;;6.42;79.06;99270.42;123177;1105;104410;-77
2022/11/17 01:10:49;;;;;;;85.53;33.93;;;;;;;6.40;79.19;99259.95;123193;1105;104303;-77
2022/11/17 01:13:20;;;;;;;85.37;34.17;;;;;;;6.41;79.35;99272.16;123232;1105;104399;-75
2022/11/17 01:15:51;;;;;;;81.77;32.30;;;;;;;6.40;79.53;99264.29;123088;1105;104262;-76
2022/11/17 01:18:22;;;;;;;76.07;31.57;;;;;;;6.43;79.27;99264.39;123227;1104;104290;-77
2022/11/17 01:20:53;;;;;;;79.90;33.07;;;;;;;6.44;79.33;99266.17;123143;1105;104469;-76
2022/11/17 01:23:25;;;;;;;83.23;33.40;;;;;;;6.43;79.19;99260.05;123118;1105;104748;-76
2022/11/17 01:26:00;;;;;;;87.10;33.30;;;;;;;6.45;79.49;99254.89;123138;1105;104383;-76
2022/11/17 01:28:31;;;;;;;82.67;33.47;;;;;;;6.43;79.77;99262.66;123221;1105;104293;-77
2022/11/17 01:31:06;;;;;;;83.70;33.17;;;;;;;6.43;79.62;99274.81;123167;1105;104424;-75
2022/11/17 01:33:38;;;;;;;81.40;32.53;;;;;;;6.44;79.40;99271.38;123316;1105;104374;-77
2022/11/17 01:36:12;;;;;;;85.30;34.47;;;;;;;6.43;79.33;99253.97;123036;1105;104402;-76
2022/11/17 01:38:44;;;;;;;89.90;35.13;;;;;;;6.44;79.51;99260.96;123383;1105;104290;-77
2022/11/17 01:41:17;;;;;;;87.67;34.17;;;;;;;6.45;79.65;99250.59;123152;1105;104277;-77
2022/11/17 01:43:50;;;;;;;93.00;34.57;;;;;;;6.47;79.70;99237.61;123323;1105;104313;-77
2022/11/17 01:46:34;;;;;;;95.53;34.90;;;;;;;6.47;79.90;99220.23;123124;1105;104268;-76
2022/11/17 01:49:11;;;;;;;85.47;32.50;;;;;;;6.47;79.94;99215.02;123243;1105;104430;-77
2022/11/17 01:51:47;;;;;;;91.37;33.70;;;;;;;6.47;79.90;99227.18;123226;1105;104220;-78
2022/11/17 01:54:21;;;;;;;97.47;32.77;;;;;;;6.44;80.05;99221.88;123284;1105;104274;-77
2022/11/17 01:56:57;;;;;;;98.63;33.50;;;;;;;6.42;79.88;99237.45;123305;1105;104344;-77
2022/11/17 01:59:32;;;;;;;91.30;34.90;;;;;;;6.43;80.14;99233.99;123232;1105;104380;-77
2022/11/17 02:02:04;;;;;;;85.33;32.73;;;;;;;6.44;80.32;99230.56;123125;1105;104261;-75
2022/11/17 02:04:38;;;;;;;90.97;33.53;;;;;;;6.45;80.53;99236.66;123231;1105;104267;-76
2022/11/17 02:07:15;;;;;;;86.40;30.87;;;;;;;6.45;80.14;99241.86;123274;1105;110201;-78
2022/11/17 02:09:48;;;;;;;85.20;31.60;;;;;;;6.45;80.29;99237.56;123135;1105;104297;-77
2022/11/17 02:12:20;;;;;;;81.70;29.93;;;;;;;6.44;80.16;99233.17;123334;1105;104326;-78
2022/11/17 02:14:53;;;;;;;88.03;31.33;;;;;;;6.43;80.33;99238.33;123372;1105;104345;-76
2022/11/17 02:17:29;;;;;;;82.27;32.03;;;;;;;6.43;80.55;99231.39;123008;1105;104290;-75
2022/11/17 02:20:06;;;;;;;84.03;30.13;;;;;;;6.45;80.52;99232.34;123150;1105;104315;-75
2022/11/17 02:23:18;;;;;;;77.13;30.20;;;;;;;6.45;80.58;99247.07;123300;1105;104274;-76
2022/11/17 02:26:18;;;;;;;79.10;28.60;;;;;;;6.45;80.53;99247.07;123171;1104;104408;-77
2022/11/17 02:28:52;;;;;;;73.20;28.13;;;;;;;6.46;80.43;99243.64;123092;1105;104322;-77
2022/11/17 02:31:33;;;;;;;70.00;27.10;;;;;;;6.46;80.73;99235.83;123246;1105;104392;-76
2022/11/17 02:34:13;;;;;;;68.17;25.03;;;;;;;6.43;80.74;99223.57;123278;1105;104264;-75
2022/11/17 02:36:52;;;;;;;67.60;25.27;;;;;;;6.40;80.68;99218.27;123255;1105;105714;-76
2022/11/17 02:39:26;;;;;;;67.97;25.63;;;;;;;6.38;80.65;99213.86;123117;1105;104740;-77
2022/11/17 02:42:04;;;;;;;65.00;26.10;;;;;;;6.37;80.86;99197.32;123307;1105;104239;-77
2022/11/17 02:44:41;;;;;;;66.43;25.77;;;;;;;6.36;80.82;99187.75;123256;1105;104245;-77
2022/11/17 02:47:18;;;;;;;65.87;26.57;;;;;;;6.37;81.07;99197.32;123170;1105;104329;-76
2022/11/17 02:49:54;;;;;;;66.00;25.00;;;;;;;6.37;81.09;99206.88;123294;1105;104261;-77
2022/11/17 02:52:26;;;;;;;69.43;26.93;;;;;;;6.37;81.01;99202.53;123232;1105;104369;-77
2022/11/17 02:55:02;;;;;;;76.10;26.67;;;;;;;6.38;81.13;99191.28;123207;1105;104326;-77
2022/11/17 02:57:36;;;;;;;76.90;27.63;;;;;;;6.39;81.11;99203.48;123221;1105;104325;-76
2022/11/17 03:00:11;;;;;;;74.72;29.48;;;;;;;6.38;81.09;99204.31;123341;1104;104287;-76
2022/11/17 03:03:03;;;;;;;81.13;30.17;;;;;;;6.39;81.05;99206.09;123244;1105;104233;-76
2022/11/17 03:05:41;;;;;;;80.70;29.67;;;;;;;6.38;81.03;99199.10;123055;1105;104635;-76
2022/11/17 03:08:24;;;;;;;81.10;31.00;;;;;;;6.40;81.27;99206.97;123030;1105;104397;-75
2022/11/17 03:11:01;;;;;;;78.10;28.97;;;;;;;6.40;81.12;99209.57;123025;1105;104271;-76
2022/11/17 03:13:43;;;;;;;79.07;29.73;;;;;;;6.37;81.26;99212.95;123192;1105;104348;-76
2022/11/17 03:16:25;;;;;;;79.53;30.40;;;;;;;6.35;81.38;99221.58;123192;1105;104396;-76
2022/11/17 03:19:05;;;;;;;82.77;29.70;;;;;;;6.29;81.25;99232.67;122967;1105;117925;-77
2022/11/17 03:21:41;;;;;;;93.07;31.77;;;;;;;6.26;81.42;99230.87;123020;1105;104392;-77
2022/11/17 03:24:17;;;;;;;92.40;31.80;;;;;;;6.26;81.34;99230.87;123087;1105;104645;-77
2022/11/17 03:26:53;;;;;;;85.30;33.00;;;;;;;6.29;81.63;99227.46;123043;1105;104261;-76
2022/11/17 03:29:29;;;;;;;83.37;32.03;;;;;;;6.31;81.29;99228.42;123037;1105;104290;-75
2022/11/17 03:32:03;;;;;;;88.43;32.87;;;;;;;6.32;81.62;99221.48;123076;1105;104383;-76
2022/11/17 03:34:39;;;;;;;85.43;32.20;;;;;;;6.33;81.61;99221.53;123076;1105;104296;-76
2022/11/17 03:37:13;;;;;;;78.53;29.87;;;;;;;6.34;81.68;99212.86;123204;1105;104271;-77
2022/11/17 03:39:50;;;;;;;81.13;31.67;;;;;;;6.34;81.93;99215.46;123433;1105;104287;-76
2022/11/17 03:42:26;;;;;;;88.00;33.50;;;;;;;6.36;81.67;99202.48;123131;1105;104267;-76
2022/11/17 03:45:02;;;;;;;84.33;32.33;;;;;;;6.37;81.75;99199.92;123241;1105;104287;-77
2022/11/17 03:47:35;;;;;;;84.03;31.90;;;;;;;6.37;81.97;99192.11;123116;1105;104297;-76
2022/11/17 03:50:13;;;;;;;85.20;32.42;;;;;;;6.37;81.96;99186.90;123210;1105;104261;-76
2022/11/17 03:52:46;;;;;;;84.77;33.37;;;;;;;6.38;82.33;99162.63;123111;1105;104313;-77
2022/11/17 03:55:17;;;;;;;92.63;33.10;;;;;;;6.37;82.00;99158.23;123467;1105;104197;-78
2022/11/17 03:57:56;;;;;;;89.30;33.87;;;;;;;6.36;82.29;99159.09;123051;1105;104217;-77
2022/11/17 04:00:28;;;;;;;87.87;35.10;;;;;;;6.37;81.98;99166.05;123025;1105;104389;-77
2022/11/17 04:02:59;;;;;;;89.10;35.67;;;;;;;6.37;82.16;99160.84;123019;1105;104316;-77
2022/11/17 04:05:30;;;;;;;90.43;35.93;;;;;;;6.36;82.29;99166.91;123016;1105;104674;-77
2022/11/17 04:08:01;;;;;;;87.43;34.53;;;;;;;6.32;82.47;99164.16;123027;1105;104191;-76
2022/11/17 04:15:55;;;;;;;92.90;35.90;;;;;;;6.32;82.35;99161.56;122976;1105;104763;-77
2022/11/17 04:16:14;;;;;;;94.03;34.63;;;;;;;6.33;82.54;99169.42;123000;1105;104380;-77
2022/11/17 04:18:46;;;;;;;91.90;34.35;;;;;;;6.33;82.74;99176.33;123099;1105;104271;-77
2022/11/17 04:21:17;;;;;;;92.90;35.47;;;;;;;6.34;82.54;99178.11;123036;1105;104297;-77
2022/11/17 04:23:49;;;;;;;86.57;34.27;;;;;;;6.36;82.73;99179.03;123097;1105;104373;-77
2022/11/17 04:29:08;;;;;;;84.43;30.57;;;;;;;6.37;82.79;99178.20;123134;1105;104373;-77
2022/11/17 04:31:40;;;;;;;91.43;33.00;;;;;;;6.36;82.54;99179.94;123001;1105;104290;-76
2022/11/17 04:34:11;;;;;;;81.93;31.93;;;;;;;6.36;82.88;99179.94;123116;1105;104277;-77
2022/11/17 04:36:46;;;;;;;83.00;31.53;;;;;;;6.32;82.88;99187.61;123026;1105;104277;-77
2022/11/17 04:39:17;;;;;;;91.97;33.90;;;;;;;6.32;82.80;99195.42;122985;1105;104358;-77
2022/11/17 04:41:56;;;;;;;90.80;32.17;;;;;;;6.34;82.91;99192.02;122997;1105;104398;-77
2022/11/17 04:44:29;;;;;;;84.63;32.40;;;;;;;6.36;83.08;99189.45;123046;1105;104293;-76
2022/11/17 04:47:02;;;;;;;78.67;30.70;;;;;;;6.38;82.83;99186.07;123076;1105;104323;-76
2022/11/17 04:49:33;;;;;;;84.87;32.35;;;;;;;6.36;82.82;99186.84;122994;1105;104227;-76
2022/11/17 04:52:05;;;;;;;80.13;30.10;;;;;;;6.35;82.96;99178.16;122994;1105;104261;-76
2022/11/17 04:54:36;;;;;;;76.57;27.87;;;;;;;6.35;83.09;99170.34;123313;1105;104661;-77
2022/11/17 04:57:07;;;;;;;80.27;28.93;;;;;;;6.35;83.31;99166.86;123178;1105;104364;-76
2022/11/17 04:59:38;;;;;;;77.77;29.87;;;;;;;6.34;83.28;99165.95;123035;1105;105636;-77
2022/11/17 05:02:09;;;;;;;79.97;29.00;;;;;;;6.35;83.15;99162.53;123009;1105;104262;-77
2022/11/17 05:04:56;;;;;;;82.77;29.60;;;;;;;6.36;83.47;99164.31;122945;1105;104399;-78
2022/11/17 05:07:27;;;;;;;78.93;30.00;;;;;;;6.37;83.52;99173.88;122977;1105;104274;-76
2022/11/17 05:10:00;;;;;;;76.73;28.63;;;;;;;6.36;83.74;99173.83;123061;1105;105595;-77
2022/11/17 05:17:03;;;;;;;76.70;27.93;;;;;;;6.34;83.55;99181.59;123033;1105;104195;-77
2022/11/17 05:18:11;;;;;;;78.30;28.63;;;;;;;6.36;83.49;99179.03;123081;1105;104408;-78
2022/11/17 05:20:43;;;;;;;85.43;30.93;;;;;;;6.34;84.01;99178.11;123121;1105;104316;-76
2022/11/17 05:26:03;;;;;;;81.57;30.10;;;;;;;6.31;83.91;99158.08;123162;1105;104263;-78
2022/11/17 05:28:34;;;;;;;84.03;30.87;;;;;;;6.32;83.66;99151.14;123076;1105;104728;-77
2022/11/17 05:31:08;;;;;;;94.50;30.30;;;;;;;6.32;83.90;99149.41;123062;1105;104358;-77
2022/11/17 05:33:40;;;;;;;89.93;28.93;;;;;;;6.30;84.51;99149.36;123136;1105;104261;-77
2022/11/17 05:36:12;;;;;;;92.37;30.33;;;;;;;6.28;84.14;99151.04;123106;1105;104376;-77
2022/11/17 05:38:43;;;;;;;92.67;32.00;;;;;;;6.28;83.84;99144.95;123174;1105;104363;-78
2022/11/17 05:41:15;;;;;;;91.37;30.70;;;;;;;6.30;84.08;99149.36;123176;1105;104361;-78
2022/11/17 05:43:49;;;;;;;87.23;30.17;;;;;;;6.28;84.08;99144.95;123768;1105;104261;-77
2022/11/17 05:46:21;;;;;;;85.03;30.90;;;;;;;6.28;84.31;99142.35;123248;1105;104262;-77
2022/11/17 05:48:53;;;;;;;89.27;31.53;;;;;;;6.27;84.23;99140.57;123294;1105;104287;-78
2022/11/17 05:51:25;;;;;;;83.07;29.60;;;;;;;6.27;84.37;99135.36;123312;1105;104226;-77
2022/11/17 05:53:56;;;;;;;88.43;30.47;;;;;;;6.27;84.37;99141.45;123477;1105;102409;-77
2022/11/17 05:56:35;;;;;;;96.70;30.90;;;;;;;6.27;84.59;99133.63;123462;1105;104325;-77
2022/11/17 05:59:20;;;;;;;89.50;31.03;;;;;;;6.27;84.35;99130.16;123374;1105;104278;-77
2022/11/17 06:01:57;;;;;;;88.65;31.65;;;;;;;6.27;84.66;99127.55;123597;1105;104223;-77
2022/11/17 06:04:29;;;;;;;97.30;31.67;;;;;;;6.31;84.88;99119.00;123431;1105;102616;-76
2022/11/17 06:07:01;;;;;;;92.40;30.87;;;;;;;6.34;84.78;99123.40;123977;1105;104290;-77
2022/11/17 06:09:34;;;;;;;88.70;32.63;;;;;;;6.37;84.50;99119.16;123489;1106;102147;-77
2022/11/17 06:12:06;;;;;;;97.23;33.73;;;;;;;6.39;85.14;99122.72;123469;1105;104201;-78
2022/11/17 06:14:41;;;;;;;99.70;35.17;;;;;;;6.42;85.38;99122.81;123621;1105;104187;-77
2022/11/17 06:17:12;;;;;;;;;;;;;;;6.44;85.45;99128.94;123748;1105;104189;-78
2022/11/17 06:19:50;;;;;;;107.60;36.67;;;;;;;6.44;85.06;99121.12;123577;1105;103465;-77
2022/11/17 06:22:22;;;;;;;106.03;37.73;;;;;;;6.47;85.63;99118.61;123845;1105;108555;-77
2022/11/17 06:24:56;;;;;;;98.37;35.68;;;;;;;6.50;85.15;99125.64;123671;1105;104235;-76
2022/11/17 06:27:30;;;;;;;98.07;35.83;;;;;;;6.55;84.87;99133.59;124186;1105;104201;-78
2022/11/17 06:30:06;;;;;;;89.13;34.57;;;;;;;6.57;84.88;99127.57;124227;1105;103404;-77
2022/11/17 06:32:42;;;;;;;91.13;33.93;;;;;;;6.58;85.09;99124.14;124117;1105;120323;-77
2022/11/17 06:35:15;;;;;;;85.45;32.65;;;;;;;6.60;84.99;99118.97;123846;1105;105790;-75
2022/11/17 06:37:46;;;;;;;80.73;30.30;;;;;;;6.59;85.45;99109.37;123897;1105;104329;-76
2022/11/17 06:40:21;;;;;;;89.03;33.13;;;;;;;6.61;85.05;99102.50;123628;1105;103100;-75
2022/11/17 06:43:08;;;;;;;90.65;33.95;;;;;;;6.64;85.38;99098.25;123779;1105;102839;-75
2022/11/17 06:45:41;;;;;;;84.37;33.90;;;;;;;6.65;85.07;99084.39;123928;1106;104373;-75
2022/11/17 06:48:15;;;;;;;89.53;33.23;;;;;;;6.65;85.47;99084.39;123882;1105;104342;-76
2022/11/17 06:50:52;;;;;;;85.47;32.93;;;;;;;6.65;85.00;99087.00;124081;1105;104208;-77
2022/11/17 06:53:27;;;;;;;91.43;35.10;;;;;;;6.65;84.97;99084.39;124253;1106;109517;-77
2022/11/17 06:56:05;;;;;;;82.13;32.97;;;;;;;6.70;85.25;99081.02;124086;1105;104188;-76
2022/11/17 06:58:40;;;;;;;83.40;33.13;;;;;;;6.71;85.37;99083.66;123917;1105;102213;-76
2022/11/17 07:01:13;;;;;;;84.37;31.73;;;;;;;6.73;85.13;99081.10;124017;1106;102756;-76
2022/11/17 07:03:45;;;;;;;82.27;31.20;;;;;;;6.71;85.39;99091.48;124036;1105;102530;-76
2022/11/17 07:06:28;;;;;;;81.83;31.07;;;;;;;6.71;84.90;99081.05;124027;1105;103257;-77
2022/11/17 07:09:03;;;;;;;80.33;30.67;;;;;;;6.74;85.42;99088.97;123906;1105;104198;-75
2022/11/17 07:11:36;;;;;;;74.37;28.13;;;;;;;6.77;85.65;99093.39;123993;1105;102841;-76
2022/11/17 07:14:09;;;;;;;77.17;29.00;;;;;;;6.74;85.24;99078.53;124217;1103;104181;-78
2022/11/17 07:16:43;;;;;;;78.00;29.87;;;;;;;6.73;85.13;99079.40;124408;1105;103327;-80
2022/11/17 07:19:15;;;;;;;80.53;29.32;;;;;;;6.75;85.22;99075.10;124256;1105;104227;-82
2022/11/17 07:21:52;;;;;;;77.67;28.53;;;;;;;6.78;85.62;99075.19;124458;1105;104191;-77
2022/11/17 07:24:39;;;;;;;70.85;26.60;;;;;;;6.80;85.58;99073.50;124578;1105;103211;-80
2022/11/17 07:27:19;;;;;;;77.40;28.40;;;;;;;6.80;85.38;99081.31;125362;1105;104243;-78
2022/11/17 07:30:15;;;;;;;85.30;31.37;;;;;;;6.81;85.63;99069.19;125327;1105;102118;-78
2022/11/17 07:32:58;;;;;;;82.57;29.80;;;;;;;6.80;85.81;99057.85;125285;1105;103262;-79
2022/11/17 07:35:45;;;;;;;81.40;29.30;;;;;;;6.79;85.44;99050.89;125388;1105;102518;-75
2022/11/17 07:38:32;;;;;;;85.57;29.10;;;;;;;6.78;85.71;99041.30;125431;1105;103059;-74
2022/11/17 07:41:12;;;;;;;90.00;29.80;;;;;;;6.78;85.04;99038.69;125378;1105;102489;-79
2022/11/17 07:43:45;;;;;;;86.63;30.77;;;;;;;6.77;85.73;99031.70;125144;1105;102027;-75
2022/11/17 07:46:17;;;;;;;84.73;30.53;;;;;;;6.79;85.62;99035.25;125394;1105;103653;-78
2022/11/17 07:48:53;;;;;;;89.57;32.67;;;;;;;6.80;86.20;99033.52;124444;1105;103683;-77
2022/11/17 07:51:25;;;;;;;94.10;32.83;;;;;;;6.78;85.74;99023.05;124578;1105;102525;-76
2022/11/17 07:53:58;;;;;;;94.23;32.73;;;;;;;6.79;85.89;99027.42;124410;1105;103084;-80
2022/11/17 07:56:30;;;;;;;94.10;32.85;;;;;;;6.79;85.69;99030.03;124611;1105;103482;-75
2022/11/17 07:59:02;;;;;;;94.77;34.47;;;;;;;6.80;85.54;99016.14;124497;1105;104229;-77
2022/11/17 08:01:36;;;;;;;95.90;33.77;;;;;;;6.81;85.85;99017.91;124609;1106;101982;-76
2022/11/17 08:04:07;;;;;;;99.63;36.77;;;;;;;6.82;85.41;99016.18;124642;1105;104175;-75
2022/11/17 08:06:54;;;;;;;95.45;34.53;;;;;;;6.80;85.73;99016.14;125354;1105;104217;-74
2022/11/17 08:09:26;;;;;;;105.67;36.20;;;;;;;6.82;85.68;99004.05;124430;1105;102816;-74
2022/11/17 08:11:59;;;;;;;100.70;36.63;;;;;;;6.82;86.05;99001.44;124430;1105;104210;-75
2022/11/17 08:14:36;;;;;;;96.00;35.77;;;;;;;6.81;85.73;99007.48;124485;1105;103399;-77
2022/11/17 08:17:10;;;;;;;97.20;34.03;;;;;;;6.78;85.93;99004.80;124619;1105;104165;-76
2022/11/17 08:19:45;;;;;;;89.97;33.37;;;;;;;6.79;86.13;98997.84;124613;1105;104293;-74
2022/11/17 08:22:19;;;;;;;95.40;34.13;;;;;;;6.82;85.96;99003.14;124499;1105;102164;-78
2022/11/17 08:24:54;;;;;;;97.23;34.53;;;;;;;6.80;86.32;99005.70;124243;1105;102462;-78
2022/11/17 08:27:30;;;;;;;95.40;34.73;;;;;;;6.80;86.21;99000.49;124519;1105;104162;-76
2022/11/17 08:30:06;;;;;;;98.20;35.30;;;;;;;6.80;86.23;99004.84;124375;1105;104149;-76
2022/11/17 08:32:52;;;;;;;94.70;35.10;;;;;;;6.79;86.21;98990.02;124552;1105;102064;-76
2022/11/17 08:35:25;;;;;;;98.40;35.73;;;;;;;6.78;86.26;98988.28;124630;1105;103965;-82
2022/11/17 08:37:59;;;;;;;90.57;33.83;;;;;;;6.76;85.80;98992.55;125916;1103;101772;-77
2022/11/17 08:40:33;;;;;;;;;;;;;;;6.77;86.37;98989.11;124970;1104;101975;-75
2022/11/17 08:43:07;;;;;;;87.93;33.20;;;;;;;6.74;86.08;98981.20;124462;1105;104408;-77
2022/11/17 08:45:38;;;;;;;91.17;32.50;;;;;;;6.75;86.20;98988.20;124316;1105;107511;-77
2022/11/17 08:48:10;;;;;;;91.33;31.90;;;;;;;6.73;87.37;98982.94;124372;1105;103530;-76
2022/11/17 08:50:43;;;;;;;94.53;35.27;;;;;;;6.72;86.87;98972.47;124411;1104;104223;-78
2022/11/17 08:53:19;;;;;;;94.97;33.80;;;;;;;6.70;86.58;98968.92;124492;1105;101969;-79
2022/11/17 08:55:51;;;;;;;96.30;34.17;;;;;;;6.67;86.83;98967.14;124393;1104;118849;-77
2022/11/17 08:58:23;;;;;;;;;;;;;;;6.67;87.23;98961.92;124723;1105;104192;-79
2022/11/17 09:00:56;;;;;;;82.23;30.43;;;;;;;6.65;86.70;98956.67;124769;1105;102569;-77
2022/11/17 09:03:29;;;;;;;92.57;33.50;;;;;;;6.63;86.68;98953.12;124563;1105;104306;-77
2022/11/17 09:06:01;;;;;;;85.33;30.90;;;;;;;6.64;87.08;98948.81;125052;1105;104169;-76
2022/11/17 09:08:47;;;;;;;;;;;;;;;;;;;;;
2022/11/17 09:11:19;;;;;;;81.90;33.90;;;;;;;6.63;87.04;98931.39;124314;1105;104204;-78
2022/11/17 09:13:52;;;;;;;80.90;31.07;;;;;;;6.69;87.01;98936.77;124360;1105;104309;-77
2022/11/17 09:16:25;;;;;;;89.30;32.07;;;;;;;6.70;87.52;98925.52;124539;1105;104255;-76
2022/11/17 09:18:57;;;;;;;85.33;29.73;;;;;;;6.69;87.50;98920.27;124552;1105;104294;-80
2022/11/17 09:21:36;;;;;;;77.00;30.60;;;;;;;6.66;87.31;98924.53;124482;1106;104313;-78
2022/11/17 09:24:08;;;;;;;77.17;28.77;;;;;;;6.64;87.36;98920.14;124637;1105;103129;-82
2022/11/17 09:26:47;;;;;;;77.13;30.10;;;;;;;6.63;87.14;98913.16;124490;1105;104195;-79
2022/11/17 09:29:21;;;;;;;71.40;27.90;;;;;;;6.64;87.36;98917.53;124297;1105;104185;-79
2022/11/17 09:32:00;;;;;;;66.53;23.97;;;;;;;6.64;87.28;98920.14;125132;1106;102359;-80
2022/11/17 09:34:38;;;;;;;63.13;24.00;;;;;;;6.59;87.20;98912.20;125173;1105;104195;-77
2022/11/17 09:37:15;;;;;;;60.00;23.90;;;;;;;6.58;87.30;98917.38;125289;1106;104326;-78
2022/11/17 09:39:47;;;;;;;61.37;21.47;;;;;;;6.59;87.79;98906.08;125311;1105;104248;-77
2022/11/17 09:42:22;;;;;;;55.67;21.13;;;;;;;6.56;87.91;98901.70;124298;1105;104236;-77
2022/11/17 09:45:02;;;;;;;51.43;20.67;;;;;;;6.54;87.87;98892.06;125048;1105;102955;-77
2022/11/17 09:47:42;;;;;;;56.00;20.50;;;;;;;6.54;87.67;98886.84;124960;1105;105738;-78
2022/11/17 09:50:24;;;;;;;52.30;20.17;;;;;;;6.55;87.82;98886.02;125822;1105;102849;-76
2022/11/17 09:53:05;;;;;;;50.77;19.07;;;;;;;6.55;87.90;98876.47;125878;1104;102459;-79
2022/11/17 09:55:48;;;;;;;51.90;18.87;;;;;;;6.57;87.49;98877.38;125661;1105;102187;-77
2022/11/17 09:58:30;;;;;;;49.43;18.77;;;;;;;6.60;87.88;98879.19;125742;1105;102140;-78
2022/11/17 10:01:05;;;;;;;45.77;17.57;;;;;;;6.60;87.48;98887.87;125833;1105;102526;-75
2022/11/17 10:03:45;;;;;;;47.17;17.63;;;;;;;6.63;88.22;98884.48;125777;1104;102620;-76
2022/11/17 10:06:27;;;;;;;44.67;18.47;;;;;;;6.63;87.84;98880.14;125853;1105;102793;-77
2022/11/17 10:09:03;;;;;;;;;;;;;;;6.66;88.14;98881.95;125856;1105;103209;-78
2022/11/17 10:11:42;;;;;;;46.77;18.03;;;;;;;6.66;88.07;98880.22;125736;1105;102461;-79
2022/11/17 10:14:17;;;;;;;44.37;17.57;;;;;;;6.69;87.57;98887.24;125742;1105;104045;-75
2022/11/17 10:16:54;;;;;;;39.90;15.83;;;;;;;6.69;87.93;98884.64;125618;1105;102895;-76
2022/11/17 10:19:38;;;;;;;42.53;16.57;;;;;;;6.68;87.57;98884.59;124911;1104;104236;-77
2022/11/17 10:22:31;;;;;;;39.10;16.00;;;;;;;6.68;87.75;98885.47;124388;1105;104184;-75
2022/11/17 10:25:37;;;;;;;41.93;17.13;;;;;;;6.65;87.54;98886.30;124647;1105;102311;-77
2022/11/17 10:28:24;;;;;;;40.00;16.63;;;;;;;6.64;87.94;98894.95;124649;1105;118666;-77
2022/11/17 10:30:59;;;;;;;36.67;15.37;;;;;;;6.66;88.05;98888.03;124427;1105;102500;-80
2022/11/17 10:33:39;;;;;;;34.37;13.93;;;;;;;6.60;87.77;98885.27;124507;1105;104022;-76
2022/11/17 10:36:22;;;;;;;35.47;13.13;;;;;;;6.54;88.15;98879.03;124622;1105;104268;-78
2022/11/17 10:38:57;;;;;;;30.50;12.07;;;;;;;6.46;87.62;98884.91;124513;1105;102032;-76
2022/11/17 10:41:41;;;;;;;30.33;12.50;;;;;;;6.42;88.07;98883.09;125299;1105;104317;-77
2022/11/17 10:44:27;;;;;;;33.30;14.50;;;;;;;6.40;88.33;98874.33;124702;1105;102759;-78
2022/11/17 10:47:05;;;;;;;32.53;15.87;;;;;;;6.46;88.41;98868.41;125304;1105;104258;-79
2022/11/17 10:49:40;;;;;;;25.90;11.57;;;;;;;6.52;88.79;98865.96;125248;1105;104182;-76
2022/11/17 10:52:24;;;;;;;24.57;8.40;;;;;;;6.47;88.69;98855.42;124498;1104;104271;-77
2022/11/17 10:55:42;;;;;;;25.63;10.70;;;;;;;6.39;88.54;98856.95;125184;1105;103356;-83
2022/11/17 10:58:40;;;;;;;25.80;11.17;;;;;;;6.37;89.01;98858.61;125023;1105;104268;-78
2022/11/17 11:01:30;;;;;;;48.30;32.03;;;;;;;6.41;89.05;98855.26;125252;1105;102929;-77
2022/11/17 11:04:28;;;;;;;24.60;10.13;;;;;;;6.44;88.75;98852.73;125121;1104;104143;-75
2022/11/17 11:07:22;;;;;;;16.17;6.17;;;;;;;6.43;88.96;98850.09;125217;1105;104240;-78
2022/11/17 11:10:03;;;;;;;13.53;5.50;;;;;;;6.33;88.83;98853.28;125340;1105;103029;-78
2022/11/17 11:12:43;;;;;;;14.83;5.60;;;;;;;6.32;88.97;98843.73;125003;1105;102466;-80
2022/11/17 11:15:39;;;;;;;14.13;5.37;;;;;;;6.33;89.12;98848.08;124921;1105;104203;-80
2022/11/17 11:18:19;;;;;;;13.17;4.97;;;;;;;6.28;89.23;98851.46;125260;1105;103627;-76
2022/11/17 11:21:04;;;;;;;13.00;5.33;;;;;;;6.25;89.31;98853.11;125379;1104;103146;-76
2022/11/17 11:23:54;;;;;;;14.07;5.28;;;;;;;6.20;89.07;98852.09;125074;1105;104370;-82
2022/11/17 11:26:42;;;;;;;14.77;5.53;;;;;;;6.14;88.86;98855.43;125270;1105;102505;-79
2022/11/17 11:29:32;;;;;;;13.17;5.27;;;;;;;6.13;89.14;98850.18;124732;1105;104390;-77
2022/11/17 11:32:32;;;;;;;13.60;5.20;;;;;;;6.11;89.17;98851.01;124875;1105;103006;-77
2022/11/17 11:35:35;;;;;;;8.10;3.93;;;;;;;6.06;89.57;98855.22;124726;1105;103746;-76
2022/11/17 11:38:35;;;;;;;11.37;4.77;;;;;;;5.98;89.14;98848.90;125750;1105;103773;-76
2022/11/17 11:41:23;;;;;;;10.60;4.53;;;;;;;5.99;89.20;98844.59;125618;1105;102533;-77
2022/11/17 11:44:19;;;;;;;7.97;4.10;;;;;;;5.97;89.67;98841.95;125929;1104;102616;-79
2022/11/17 11:47:08;;;;;;;7.33;3.30;;;;;;;5.98;89.52;98838.48;126012;1104;102486;-76
2022/11/17 11:49:52;;;;;;;7.30;3.97;;;;;;;5.98;89.39;98825.47;125781;1105;101964;-80
2022/11/17 11:52:44;;;;;;;6.23;3.47;;;;;;;5.98;89.34;98827.20;125596;1105;102717;-79
2022/11/17 11:55:29;;;;;;;12.37;4.53;;;;;;;5.96;89.56;98814.11;125919;1105;101502;-76
2022/11/17 11:58:20;;;;;;;11.10;4.03;;;;;;;5.97;90.52;98817.61;125829;1104;103032;-77
2022/11/17 12:01:10;;;;;;;10.20;3.95;;;;;;;5.91;89.98;98826.13;125848;1105;102263;-78
2022/11/17 12:03:50;;;;;;;13.40;4.40;;;;;;;5.87;89.53;98819.06;126010;1105;102746;-76
2022/11/17 12:09:19;;;;;;;11.50;4.37;;;;;;;5.84;89.77;98826.78;126277;1096;103246;-74
2022/11/17 12:12:05;;;;;;;8.93;3.90;;;;;;;5.85;89.74;98821.62;125722;1105;103193;-74
2022/11/17 12:14:38;;;;;;;11.27;4.33;;;;;;;5.90;90.04;98821.74;125867;1104;101846;-74
2022/11/17 12:17:25;;;;;;;12.87;3.90;;;;;;;5.92;89.81;98820.95;125830;1105;101876;-76
2022/11/17 12:19:59;;;;;;;9.47;3.93;;;;;;;5.90;89.30;98821.74;125797;1105;103179;-77